Accueil
METAR-TAF:

METAR-TAF

Aéroports :

Tunis, Tunisie

Aéroport international de Tunis-Carthage

latitude: 36-50N, longitude: 010-14E, altitude: 3 m

Observation

Le bulletin a été fait il y a 36 minutes, à 03:00 UTC
Vent 2 kt de direction variable
Température 19°C
Humidité 73%
Pression 1014 hPa
Visibilité 10 km ou plus
Quelques nuages à une hauteur de 2600 ft

METAR: DTTA 260300Z VRB02KT 9999 FEW026 19/14 Q1014 NOSIG

Heure: 04:36 (03:36 UTC)

Prévision

Le bulletin a été fait il y a 4 heures et 36 minutes, à 23:00 UTC
Prévision valable du 26 à 00 UTC au 26 à 24 UTC
Vent 5 kt de nord/nord-ouest
Visibilité 10 km ou plus
pas de nuages en-dessous de 1500 mètres et pas de cumulonimbus.
Evoluant progressivement
du 26 à 13 UTC au 26 à 15 UTC
Vent 12 kt de est/nord-est
Evoluant progressivement
du 26 à 22 UTC au 26 à 24 UTC
Vent 4 kt de nord/nord-ouest

TAF: DTTA 252300Z 2600/2624 34005KT CAVOK BECMG 2613/2615 06012KT BECMG 2622/2624 34004KT

Observations et prévisions météorologiques de plus de 4000 aéroports (messages METAR et TAF).

Les stations disponibles sont représentées par des disques jaunes et rouges sur la carte.

Passer la souris dessus pour voir le nom de la station.

Cliquer dessus pour voir les observations et prévisions météorologiques.

Pour changer de carte: cliquez sur les boutons verts avec une croix noire pour zoomer, sur le bouton vert avec un tiret pour effectuer un zoom arrière, ou sur les flèches vertes pour les cartes adjacentes.


METAR-TAF: